Time;durP1;ratioP1;P1;durP2;ratioP2;P2;SDS_P1;SDS_P2;PMS_P1;PMS_P2;Temp;Humidity;BMP_temperature;BMP_pressure;BME280_temperature;BME280_humidity;BME280_pressure;Samples;Min_cycle;Max_cycle;Signal;HPM_P1;HPM_P2
2021/10/29 00:01:51;;;;;;;26.67;21.83;;;7.10;1.00;;;;;;4863111;29;20224;-70
2021/10/29 00:04:17;;;;;;;28.60;21.90;;;7.00;1.00;;;;;;4868933;29;20231;-70
2021/10/29 00:06:43;;;;;;;23.70;21.10;;;7.00;1.00;;;;;;4861679;29;20193;-69
2021/10/29 00:09:09;;;;;;;24.83;20.93;;;7.00;1.00;;;;;;4865651;29;20251;-69
2021/10/29 00:11:35;;;;;;;26.07;22.27;;;6.90;1.00;;;;;;4873404;29;20200;-69
2021/10/29 00:14:01;;;;;;;24.10;21.10;;;6.90;1.00;;;;;;4872719;29;20687;-70
2021/10/29 00:16:26;;;;;;;28.50;21.97;;;6.90;1.00;;;;;;4856043;29;20201;-69
2021/10/29 00:18:52;;;;;;;28.47;22.97;;;7.00;1.00;;;;;;4872004;29;20198;-70
2021/10/29 00:21:17;;;;;;;26.80;22.10;;;7.00;1.00;;;;;;4871690;29;20220;-69
2021/10/29 00:23:43;;;;;;;23.10;20.60;;;7.00;1.00;;;;;;4874027;29;20210;-69
2021/10/29 00:26:09;;;;;;;25.60;20.40;;;6.90;1.00;;;;;;4873809;29;20206;-70
2021/10/29 00:28:34;;;;;;;23.87;21.20;;;6.80;1.00;;;;;;4877050;29;20197;-70
2021/10/29 00:31:00;;;;;;;27.03;21.37;;;6.70;1.00;;;;;;4868114;29;20603;-69
2021/10/29 00:33:26;;;;;;;27.40;20.07;;;6.60;1.00;;;;;;4874744;29;20227;-69
2021/10/29 00:35:51;;;;;;;28.13;20.33;;;6.60;1.00;;;;;;4871654;29;20285;-69
2021/10/29 00:38:17;;;;;;;24.80;21.27;;;6.50;1.00;;;;;;4875949;29;20538;-69
2021/10/29 00:40:43;;;;;;;25.80;21.30;;;6.70;1.00;;;;;;4876097;29;20448;-70
2021/10/29 00:43:10;;;;;;;30.33;23.03;;;6.90;1.00;;;;;;4871552;29;20196;-71
2021/10/29 00:45:36;;;;;;;24.70;22.03;;;6.90;1.00;;;;;;4868820;29;20601;-68
2021/10/29 00:48:03;;;;;;;25.77;22.10;;;6.90;1.00;;;;;;4873757;29;20197;-69
2021/10/29 00:50:29;;;;;;;27.53;22.17;;;6.90;1.00;;;;;;4869584;29;20645;-69
2021/10/29 00:52:56;;;;;;;36.57;22.97;;;6.90;1.00;;;;;;4865594;29;20271;-71
2021/10/29 00:55:22;;;;;;;34.20;23.10;;;6.80;1.00;;;;;;4875065;29;20575;-70
2021/10/29 00:57:53;;;;;;;29.07;22.80;;;6.80;1.00;;;;;;4876106;29;20193;-69
2021/10/29 01:00:20;;;;;;;25.67;21.70;;;6.90;1.00;;;;;;4872539;29;20309;-70
2021/10/29 01:02:46;;;;;;;27.93;22.67;;;6.80;1.00;;;;;;4873404;29;20561;-73
2021/10/29 01:05:12;;;;;;;30.73;23.37;;;6.70;1.00;;;;;;4868966;29;20211;-69
2021/10/29 01:07:37;;;;;;;32.10;21.57;;;6.60;1.00;;;;;;4871879;29;20633;-69
2021/10/29 01:10:05;;;;;;;24.17;21.33;;;6.50;1.00;;;;;;4879705;29;20206;-70
2021/10/29 01:12:30;;;;;;;27.83;21.33;;;6.60;1.00;;;;;;4876419;29;20229;-69
2021/10/29 01:14:58;;;;;;;32.60;21.83;;;6.70;1.00;;;;;;4869206;29;20548;-70
2021/10/29 01:17:24;;;;;;;24.03;21.27;;;6.60;1.00;;;;;;4878024;29;20206;-70
2021/10/29 01:19:52;;;;;;;23.60;21.07;;;6.60;1.00;;;;;;4872446;29;20257;-71
2021/10/29 01:22:18;;;;;;;28.10;20.27;;;6.60;1.00;;;;;;4871058;29;20213;-69
2021/10/29 01:24:44;;;;;;;26.03;21.67;;;6.50;1.00;;;;;;4867724;29;20209;-68
2021/10/29 01:27:11;;;;;;;21.73;19.20;;;6.50;1.00;;;;;;4867987;29;20201;-70
2021/10/29 01:29:38;;;;;;;23.07;19.47;;;6.40;1.00;;;;;;4876676;29;20203;-69
2021/10/29 01:32:06;;;;;;;21.30;17.60;;;6.40;1.00;;;;;;4873310;29;20209;-69
2021/10/29 01:34:33;;;;;;;23.33;18.40;;;6.40;1.00;;;;;;4876492;29;20303;-69
2021/10/29 01:37:00;;;;;;;20.67;18.27;;;6.40;1.00;;;;;;4877814;29;20207;-68
2021/10/29 01:39:25;;;;;;;23.63;19.23;;;6.40;1.00;;;;;;4872173;29;20281;-70
2021/10/29 01:41:51;;;;;;;22.90;17.87;;;6.40;1.00;;;;;;4875194;29;20625;-70
2021/10/29 01:44:16;;;;;;;23.67;17.83;;;6.40;1.00;;;;;;4872907;29;20568;-69
2021/10/29 01:46:42;;;;;;;19.80;17.77;;;6.50;1.00;;;;;;4876304;29;20267;-70
2021/10/29 01:49:08;;;;;;;21.83;17.27;;;6.40;1.00;;;;;;4866497;29;20206;-70
2021/10/29 01:51:34;;;;;;;23.23;18.40;;;6.40;1.00;;;;;;4875020;29;20199;-70
2021/10/29 01:54:00;;;;;;;19.90;17.80;;;6.40;1.00;;;;;;4876771;29;20196;-69
2021/10/29 01:56:26;;;;;;;20.43;17.47;;;6.50;1.00;;;;;;4866362;29;20255;-69
2021/10/29 01:58:51;;;;;;;19.47;17.43;;;6.50;1.00;;;;;;4871294;29;20197;-70
2021/10/29 02:01:17;;;;;;;24.40;17.77;;;6.60;1.00;;;;;;4868591;29;20217;-69
2021/10/29 02:03:43;;;;;;;19.30;16.93;;;6.50;1.00;;;;;;4875639;29;20196;-69
2021/10/29 02:06:09;;;;;;;22.43;17.33;;;6.50;1.00;;;;;;4871286;29;20223;-68
2021/10/29 02:08:35;;;;;;;21.37;19.03;;;6.40;1.00;;;;;;4874097;29;20204;-69
2021/10/29 02:11:01;;;;;;;23.03;19.43;;;6.40;1.00;;;;;;4871767;29;20551;-68
2021/10/29 02:13:27;;;;;;;24.40;18.03;;;6.50;1.00;;;;;;4874213;29;20209;-68
2021/10/29 02:15:53;;;;;;;23.47;18.83;;;6.50;1.00;;;;;;4868094;29;20204;-69
2021/10/29 02:18:19;;;;;;;22.33;18.47;;;6.50;1.00;;;;;;4872097;29;20272;-68
2021/10/29 02:20:45;;;;;;;22.73;19.77;;;6.70;1.00;;;;;;4874045;29;20215;-69
2021/10/29 02:23:12;;;;;;;26.70;21.00;;;6.80;1.00;;;;;;4871412;29;20227;-68
2021/10/29 02:25:43;;;;;;;21.90;19.17;;;6.80;1.00;;;;;;4870257;29;20199;-70
2021/10/29 02:28:09;;;;;;;20.97;18.73;;;6.80;1.00;;;;;;4872351;29;20199;-71
2021/10/29 02:30:35;;;;;;;21.53;18.30;;;6.90;1.00;;;;;;4873597;29;20212;-68
2021/10/29 02:33:01;;;;;;;21.77;19.33;;;6.90;1.00;;;;;;4866110;29;20243;-69
2021/10/29 02:35:26;;;;;;;19.83;17.83;;;6.90;1.00;;;;;;4873539;29;20208;-70
2021/10/29 02:37:52;;;;;;;20.83;18.70;;;6.90;1.00;;;;;;4870451;29;20702;-69
2021/10/29 02:40:17;;;;;;;28.63;19.53;;;6.90;1.00;;;;;;4865302;29;20234;-69
2021/10/29 02:42:43;;;;;;;26.33;21.37;;;7.00;1.00;;;;;;4880147;29;20300;-69
2021/10/29 02:45:09;;;;;;;25.97;19.53;;;7.00;1.00;;;;;;4874383;29;20192;-71
2021/10/29 02:47:34;;;;;;;21.37;18.57;;;7.00;1.00;;;;;;4874675;29;20716;-69
2021/10/29 02:50:00;;;;;;;22.60;18.80;;;7.00;1.00;;;;;;4863938;29;20220;-69
2021/10/29 02:52:25;;;;;;;23.73;20.93;;;7.10;1.00;;;;;;4871883;29;20199;-70
2021/10/29 02:54:51;;;;;;;22.37;19.27;;;7.10;1.00;;;;;;4871953;29;20216;-69
2021/10/29 02:57:17;;;;;;;22.80;19.40;;;7.10;1.00;;;;;;4869862;29;20202;-71
2021/10/29 02:59:43;;;;;;;24.97;19.97;;;7.10;1.00;;;;;;4873775;29;20210;-70
2021/10/29 03:02:09;;;;;;;26.10;19.63;;;7.20;1.00;;;;;;4868457;29;20235;-73
2021/10/29 03:04:34;;;;;;;23.40;19.63;;;7.10;1.00;;;;;;4864944;29;20236;-69
2021/10/29 03:07:00;;;;;;;26.47;20.37;;;7.10;1.00;;;;;;4870884;29;20199;-70
2021/10/29 03:09:25;;;;;;;22.77;19.70;;;7.20;1.00;;;;;;4867684;29;20645;-70
2021/10/29 03:11:51;;;;;;;25.43;20.77;;;7.10;1.00;;;;;;4872873;29;20195;-70
2021/10/29 03:14:17;;;;;;;31.47;21.80;;;7.20;1.00;;;;;;4873534;29;20668;-69
2021/10/29 03:16:43;;;;;;;26.07;20.73;;;7.20;1.00;;;;;;4872837;29;20694;-69
2021/10/29 03:19:09;;;;;;;28.63;21.93;;;7.20;1.00;;;;;;4870322;29;21214;-70
2021/10/29 03:21:34;;;;;;;26.20;20.93;;;7.20;1.00;;;;;;4867955;29;20215;-69
2021/10/29 03:24:00;;;;;;;32.83;20.63;;;7.30;1.00;;;;;;4866826;29;20231;-69
2021/10/29 03:26:25;;;;;;;26.50;20.70;;;7.40;1.00;;;;;;4869192;29;20284;-69
2021/10/29 03:28:51;;;;;;;28.43;21.73;;;7.30;1.00;;;;;;4873093;29;20192;-69
2021/10/29 03:31:17;;;;;;;29.87;20.47;;;7.30;1.00;;;;;;4871874;29;20307;-68
2021/10/29 03:33:42;;;;;;;26.93;21.87;;;7.30;1.00;;;;;;4866128;29;20299;-69
2021/10/29 03:36:08;;;;;;;27.87;20.83;;;7.30;1.00;;;;;;4870481;29;20252;-69
2021/10/29 03:41:06;;;;;;;30.50;21.80;;;7.40;1.00;;;;;;4865352;29;20295;-68
2021/10/29 03:43:56;;;;;;;25.33;21.50;;;7.30;1.00;;;;;;4876562;29;20192;-69
2021/10/29 03:46:22;;;;;;;25.17;19.83;;;7.40;1.00;;;;;;4876645;29;20283;-70
2021/10/29 03:51:42;;;;;;;31.93;21.30;;;7.30;1.00;;;;;;4876974;29;20248;-69
2021/10/29 03:54:22;;;;;;;28.53;22.13;;;7.20;1.00;;;;;;4877723;29;20688;-69
2021/10/29 03:57:06;;;;;;;26.50;22.43;;;7.20;1.00;;;;;;4876946;29;20222;-69
2021/10/29 03:59:31;;;;;;;27.10;20.83;;;7.40;1.00;;;;;;4876834;29;20513;-69
2021/10/29 04:01:58;;;;;;;27.30;21.43;;;7.20;1.00;;;;;;4879145;29;20260;-69
2021/10/29 04:04:24;;;;;;;30.60;22.63;;;7.30;1.00;;;;;;4870141;29;20254;-69
2021/10/29 04:06:50;;;;;;;30.40;23.13;;;7.20;1.00;;;;;;4880344;29;20205;-69
2021/10/29 04:09:16;;;;;;;31.93;22.20;;;7.30;1.00;;;;;;4877111;29;20221;-69
2021/10/29 04:11:41;;;;;;;32.03;23.33;;;7.30;1.00;;;;;;4880372;29;20189;-69
2021/10/29 04:14:13;;;;;;;37.10;22.77;;;7.10;1.00;;;;;;4869819;29;20192;-70
2021/10/29 04:16:40;;;;;;;29.47;22.53;;;7.10;1.00;;;;;;4876476;29;20199;-70
2021/10/29 04:19:10;;;;;;;34.57;23.67;;;7.30;1.00;;;;;;4867446;29;20201;-70
2021/10/29 04:21:37;;;;;;;27.40;22.37;;;7.30;1.00;;;;;;4878182;29;20301;-70
2021/10/29 04:24:03;;;;;;;33.87;25.10;;;7.30;1.00;;;;;;4874161;29;20574;-70
2021/10/29 04:26:29;;;;;;;33.10;23.33;;;7.40;1.00;;;;;;4870175;29;20216;-69
2021/10/29 04:28:56;;;;;;;32.90;23.50;;;7.40;1.00;;;;;;4880390;29;20184;-70
2021/10/29 04:31:28;;;;;;;34.57;24.33;;;7.40;1.00;;;;;;4878084;29;20196;-69
2021/10/29 04:33:53;;;;;;;27.93;22.50;;;7.40;1.00;;;;;;4874727;29;20673;-69
2021/10/29 04:36:20;;;;;;;31.00;23.63;;;7.50;1.00;;;;;;4874723;29;20189;-69
2021/10/29 04:38:46;;;;;;;30.33;24.00;;;7.50;1.00;;;;;;4875129;29;20262;-70
2021/10/29 04:41:13;;;;;;;28.73;23.90;;;7.60;1.00;;;;;;4879135;29;20220;-69
2021/10/29 04:43:39;;;;;;;30.97;23.93;;;7.60;1.00;;;;;;4877751;29;20193;-70
2021/10/29 04:46:05;;;;;;;28.57;23.50;;;7.60;1.00;;;;;;4872080;29;20203;-72
2021/10/29 04:48:31;;;;;;;32.33;23.77;;;7.60;1.00;;;;;;4872642;29;20244;-71
2021/10/29 04:50:57;;;;;;;30.57;23.10;;;7.60;1.00;;;;;;4874067;29;20204;-70
2021/10/29 04:53:23;;;;;;;25.57;22.47;;;7.60;1.00;;;;;;4873794;29;20676;-70
2021/10/29 04:55:48;;;;;;;28.53;22.87;;;7.60;1.00;;;;;;4872831;29;20184;-70
2021/10/29 04:58:14;;;;;;;29.17;22.10;;;7.60;1.00;;;;;;4869893;29;20189;-70
2021/10/29 05:00:40;;;;;;;28.60;22.90;;;7.70;1.00;;;;;;4868688;29;20240;-70
2021/10/29 05:03:06;;;;;;;26.30;22.43;;;7.70;1.00;;;;;;4874586;29;20200;-70
2021/10/29 05:05:34;;;;;;;29.17;21.60;;;7.60;1.00;;;;;;4865459;29;20213;-69
2021/10/29 05:08:01;;;;;;;36.10;22.87;;;7.60;1.00;;;;;;4869530;29;20201;-70
2021/10/29 05:10:27;;;;;;;27.67;23.33;;;7.50;1.00;;;;;;4875054;29;20253;-70
2021/10/29 05:12:53;;;;;;;30.67;21.63;;;7.60;1.00;;;;;;4872284;29;20200;-71
2021/10/29 05:15:19;;;;;;;33.60;24.13;;;7.60;1.00;;;;;;4872670;29;20605;-70
2021/10/29 05:17:46;;;;;;;29.33;23.13;;;7.60;1.00;;;;;;4878560;29;20192;-70
2021/10/29 05:20:13;;;;;;;34.00;22.77;;;7.60;1.00;;;;;;4878741;29;20293;-71
2021/10/29 05:22:39;;;;;;;29.40;23.43;;;7.60;1.00;;;;;;4875214;29;20203;-70
2021/10/29 05:25:05;;;;;;;26.67;22.00;;;7.70;1.00;;;;;;4878047;29;20188;-70
2021/10/29 05:27:31;;;;;;;26.27;22.23;;;7.70;1.00;;;;;;4869831;29;20220;-70
2021/10/29 05:29:56;;;;;;;26.50;22.60;;;7.80;1.00;;;;;;4865965;29;20212;-69
2021/10/29 05:32:22;;;;;;;27.67;22.60;;;7.80;1.00;;;;;;4874938;29;20606;-70
2021/10/29 05:34:47;;;;;;;30.47;22.30;;;7.70;1.00;;;;;;4875075;29;20205;-72
2021/10/29 05:37:13;;;;;;;26.53;20.77;;;7.80;1.00;;;;;;4877833;29;20218;-69
2021/10/29 05:39:39;;;;;;;26.87;22.67;;;7.80;1.00;;;;;;4870045;29;20201;-69
2021/10/29 05:42:05;;;;;;;27.53;22.07;;;7.80;1.00;;;;;;4867733;29;20213;-69
2021/10/29 05:44:30;;;;;;;23.20;20.70;;;7.80;1.00;;;;;;4871805;29;20245;-69
2021/10/29 05:46:56;;;;;;;28.27;21.23;;;7.80;1.00;;;;;;4872005;29;20280;-70
2021/10/29 05:49:23;;;;;;;26.87;22.37;;;7.80;1.00;;;;;;4876050;29;20188;-70
2021/10/29 05:51:49;;;;;;;27.37;22.00;;;7.90;1.00;;;;;;4865382;29;20193;-72
2021/10/29 05:57:00;;;;;;;26.33;22.53;;;7.90;1.00;;;;;;4870644;29;20193;-69
2021/10/29 05:59:25;;;;;;;32.47;22.27;;;7.80;1.00;;;;;;4871560;29;20192;-69
2021/10/29 06:01:51;;;;;;;33.87;23.30;;;7.80;1.00;;;;;;4863673;29;20277;-70
2021/10/29 06:04:17;;;;;;;27.73;21.30;;;7.80;1.00;;;;;;4871789;29;20199;-70
2021/10/29 06:06:43;;;;;;;31.00;23.80;;;7.80;1.00;;;;;;4871291;29;20243;-70
2021/10/29 06:09:09;;;;;;;34.17;24.57;;;7.80;1.00;;;;;;4878717;29;20192;-70
2021/10/29 06:11:36;;;;;;;27.77;23.80;;;7.80;1.00;;;;;;4875057;29;20282;-70
2021/10/29 06:14:02;;;;;;;24.70;21.07;;;7.90;1.00;;;;;;4864106;29;20233;-69
2021/10/29 06:16:28;;;;;;;27.00;20.93;;;7.90;1.00;;;;;;4870843;29;20196;-69
2021/10/29 06:18:53;;;;;;;30.77;21.90;;;7.90;1.00;;;;;;4874489;29;20245;-69
2021/10/29 06:21:29;;;;;;;23.83;20.13;;;7.90;1.00;;;;;;4868051;29;20212;-69
2021/10/29 06:24:15;;;;;;;24.73;20.73;;;7.90;1.00;;;;;;4875988;29;20196;-71
2021/10/29 06:26:49;;;;;;;30.30;21.33;;;7.90;1.00;;;;;;4868677;29;20217;-71
2021/10/29 06:29:14;;;;;;;21.87;19.57;;;7.90;1.00;;;;;;4869342;29;20700;-69
2021/10/29 06:31:41;;;;;;;29.20;20.00;;;8.00;1.00;;;;;;4867765;29;20288;-70
2021/10/29 06:34:07;;;;;;;28.70;21.73;;;7.90;1.00;;;;;;4866037;29;20276;-70
2021/10/29 06:36:33;;;;;;;23.23;20.03;;;8.00;1.00;;;;;;4876554;29;20646;-70
2021/10/29 06:39:00;;;;;;;23.57;19.17;;;8.10;1.00;;;;;;4871433;29;20196;-70
2021/10/29 06:41:26;;;;;;;22.90;19.33;;;8.10;1.00;;;;;;4870285;29;20228;-70
2021/10/29 06:46:35;;;;;;;26.63;20.97;;;8.20;1.00;;;;;;4870976;29;20186;-70
2021/10/29 07:40:41;;;;;;;23.57;17.83;;;8.50;1.00;;;;;;4880954;29;20280;-70
2021/10/29 07:43:10;;;;;;;20.03;18.00;;;8.50;1.00;;;;;;4879576;29;20311;-72
2021/10/29 07:45:36;;;;;;;23.97;19.20;;;8.50;1.00;;;;;;4870077;29;20964;-69
2021/10/29 07:48:02;;;;;;;21.00;18.47;;;8.50;1.00;;;;;;4879720;29;20708;-69
2021/10/29 07:50:28;;;;;;;22.80;19.80;;;8.50;1.00;;;;;;4877900;29;20200;-69
2021/10/29 07:52:57;;;;;;;25.13;19.87;;;8.60;1.00;;;;;;4879613;29;20626;-69
2021/10/29 07:55:24;;;;;;;22.60;19.17;;;8.60;1.00;;;;;;4875916;29;20557;-72
2021/10/29 07:57:51;;;;;;;24.40;20.23;;;8.60;1.00;;;;;;4870160;29;20193;-69
2021/10/29 08:00:20;;;;;;;21.37;19.10;;;8.70;1.00;;;;;;4873558;29;20195;-69
2021/10/29 08:02:49;;;;;;;19.57;17.57;;;8.70;1.00;;;;;;4874369;29;20651;-69
2021/10/29 08:05:15;;;;;;;21.83;19.60;;;8.70;1.00;;;;;;4891667;29;20212;-69
2021/10/29 08:07:41;;;;;;;20.77;18.67;;;8.60;1.00;;;;;;4873450;29;20283;-70
2021/10/29 08:10:09;;;;;;;23.00;19.57;;;8.70;1.00;;;;;;4874593;29;20617;-70
2021/10/29 08:12:36;;;;;;;21.53;19.23;;;8.70;1.00;;;;;;4882059;29;20222;-71
2021/10/29 08:15:04;;;;;;;25.80;21.13;;;8.70;1.00;;;;;;4868391;29;20573;-70
2021/10/29 08:17:32;;;;;;;24.00;19.47;;;8.70;1.00;;;;;;4875260;29;20276;-70
2021/10/29 08:19:59;;;;;;;23.57;20.67;;;8.80;1.00;;;;;;4877389;29;20712;-70
2021/10/29 08:22:25;;;;;;;21.20;19.00;;;8.80;1.00;;;;;;4881424;29;20320;-70
2021/10/29 08:24:51;;;;;;;23.17;18.73;;;8.90;1.00;;;;;;4876857;29;20194;-70
2021/10/29 08:27:17;;;;;;;20.87;18.23;;;8.90;1.00;;;;;;4875326;29;20195;-71
2021/10/29 08:29:43;;;;;;;18.83;17.10;;;8.90;1.00;;;;;;4874543;29;20261;-70
2021/10/29 08:32:10;;;;;;;23.67;17.60;;;8.90;1.00;;;;;;4877424;29;20264;-72
2021/10/29 08:34:36;;;;;;;19.17;17.07;;;9.00;1.00;;;;;;4879884;29;20205;-71
2021/10/29 08:37:04;;;;;;;20.93;18.37;;;9.10;1.00;;;;;;4876869;29;20209;-70
2021/10/29 08:39:31;;;;;;;25.47;20.47;;;9.20;1.00;;;;;;4873489;29;20190;-70
2021/10/29 08:41:58;;;;;;;25.83;20.80;;;9.30;1.00;;;;;;4874928;29;20748;-69
2021/10/29 08:44:24;;;;;;;29.87;21.40;;;9.30;1.00;;;;;;4876436;29;20257;-70
2021/10/29 08:46:50;;;;;;;23.77;20.73;;;9.20;1.00;;;;;;4877149;29;20250;-70
2021/10/29 08:49:16;;;;;;;24.27;20.43;;;9.20;1.00;;;;;;4869267;29;20523;-71
2021/10/29 08:51:42;;;;;;;22.27;19.87;;;9.30;1.00;;;;;;4877067;29;20542;-70
2021/10/29 08:54:08;;;;;;;22.33;20.00;;;9.30;1.00;;;;;;4874713;29;20200;-70
2021/10/29 08:56:35;;;;;;;22.97;20.60;;;9.30;1.00;;;;;;4868548;29;20207;-69
2021/10/29 08:59:22;;;;;;;23.30;20.80;;;9.40;1.00;;;;;;4866151;29;20227;-72
2021/10/29 09:01:56;;;;;;;21.60;19.40;;;9.50;1.00;;;;;;4865749;29;20300;-70
2021/10/29 09:32:59;;;;;;;17.80;15.90;;;9.50;1.00;;;;;;4869894;29;20668;-71
2021/10/29 09:35:27;;;;;;;19.73;16.77;;;9.50;1.00;;;;;;4870070;29;20241;-71
2021/10/29 09:38:12;;;;;;;20.60;16.50;;;9.60;1.00;;;;;;4870873;29;20259;-72
2021/10/29 09:40:53;;;;;;;18.90;16.90;;;9.60;1.00;;;;;;4871631;29;20247;-72
2021/10/29 09:43:21;;;;;;;21.83;17.00;;;9.60;1.00;;;;;;4863957;29;20214;-71
2021/10/29 09:45:58;;;;;;;18.37;16.40;;;9.80;1.00;;;;;;4867531;29;20203;-70
2021/10/29 09:48:44;;;;;;;18.80;17.03;;;9.80;1.00;;;;;;4863951;29;20193;-71
2021/10/29 09:51:13;;;;;;;27.67;17.43;;;9.90;1.00;;;;;;4874670;29;20251;-70
2021/10/29 09:58:53;;;;;;;18.73;16.80;;;10.30;1.00;;;;;;4873282;29;20199;-70
2021/10/29 10:01:23;;;;;;;20.20;16.57;;;10.40;1.00;;;;;;4867316;29;20230;-71
2021/10/29 10:03:50;;;;;;;16.80;15.27;;;10.50;1.00;;;;;;4871110;29;20609;-71
2021/10/29 10:06:19;;;;;;;17.50;15.30;;;10.60;1.00;;;;;;4872003;29;20223;-71
2021/10/29 10:08:46;;;;;;;18.30;14.87;;;10.70;1.00;;;;;;4862019;29;20571;-71
2021/10/29 10:11:14;;;;;;;18.60;15.07;;;10.80;1.00;;;;;;4866954;29;20201;-71
2021/10/29 10:13:41;;;;;;;17.23;15.40;;;10.90;1.00;;;;;;4874409;29;20479;-71
2021/10/29 10:16:08;;;;;;;14.87;13.43;;;11.00;1.00;;;;;;4868999;29;20740;-70
2021/10/29 10:18:34;;;;;;;14.87;13.33;;;11.00;1.00;;;;;;4861637;29;20224;-71
2021/10/29 10:21:03;;;;;;;12.73;11.53;;;11.10;1.00;;;;;;4876853;29;20276;-72
2021/10/29 10:23:33;;;;;;;14.80;13.23;;;11.10;1.00;;;;;;4868534;29;20257;-72
2021/10/29 10:26:33;;;;;;;14.47;12.97;;;11.00;1.00;;;;;;4870482;29;20222;-71
2021/10/29 10:29:18;;;;;;;13.13;11.93;;;11.10;1.00;;;;;;4869482;29;20189;-71
2021/10/29 10:46:04;;;;;;;12.40;11.17;;;11.50;1.00;;;;;;4867018;29;20186;-71
2021/10/29 10:48:29;;;;;;;13.10;11.70;;;11.60;1.00;;;;;;4861839;29;20845;-71
2021/10/29 10:52:13;;;;;;;13.10;11.73;;;11.70;1.00;;;;;;4862630;29;20224;-72
2021/10/29 10:57:23;;;;;;;11.30;10.30;;;12.00;1.00;;;;;;4863650;29;20199;-72
2021/10/29 11:10:24;;;;;;;16.57;12.73;;;12.30;1.00;;;;;;4867951;29;20201;-72
2021/10/29 11:12:50;;;;;;;13.87;12.53;;;12.20;1.00;;;;;;4870137;29;20213;-71
2021/10/29 11:15:27;;;;;;;13.33;12.03;;;12.10;1.00;;;;;;4866870;29;20604;-71
2021/10/29 11:18:13;;;;;;;12.73;11.50;;;12.00;1.00;;;;;;4871418;29;20182;-70
2021/10/29 11:23:06;;;;;;;12.07;10.93;;;12.10;1.00;;;;;;4864365;29;20250;-70
2021/10/29 11:26:09;;;;;;;12.50;11.23;;;12.00;1.00;;;;;;4870644;29;20445;-71
2021/10/29 11:28:40;;;;;;;13.70;11.97;;;12.00;1.00;;;;;;4866970;29;20197;-72
2021/10/29 11:31:08;;;;;;;13.30;11.97;;;12.10;1.00;;;;;;4866744;29;20222;-72
2021/10/29 11:33:38;;;;;;;13.17;11.80;;;12.30;1.00;;;;;;4888268;29;20213;-71
2021/10/29 11:36:08;;;;;;;14.07;10.97;;;12.40;1.00;;;;;;4871693;29;20289;-72
2021/10/29 11:38:36;;;;;;;12.97;11.77;;;12.30;1.00;;;;;;4870553;29;20265;-72
2021/10/29 11:41:08;;;;;;;13.30;12.00;;;12.10;1.00;;;;;;4861850;29;20228;-71
2021/10/29 11:43:35;;;;;;;12.13;10.93;;;12.10;1.00;;;;;;4871469;29;20195;-71
2021/10/29 11:46:04;;;;;;;12.37;11.17;;;12.40;1.00;;;;;;4864309;29;20192;-71
2021/10/29 11:48:30;;;;;;;12.83;11.63;;;12.50;1.00;;;;;;4875767;29;20196;-71
2021/10/29 11:51:11;;;;;;;20.40;12.53;;;12.20;1.00;;;;;;4869803;29;20279;-74
2021/10/29 11:53:48;;;;;;;12.30;11.20;;;12.50;1.00;;;;;;4869641;29;20280;-70
2021/10/29 11:56:26;;;;;;;12.70;11.50;;;12.70;1.00;;;;;;4868318;29;20195;-71
2021/10/29 12:01:50;;;;;;;12.83;11.63;;;13.00;1.00;;;;;;4871339;29;20665;-71
2021/10/29 12:10:05;;;;;;;11.27;10.27;;;13.50;1.00;;;;;;4868744;29;20192;-71
2021/10/29 12:12:39;;;;;;;11.83;10.83;;;13.50;1.00;;;;;;4855458;29;20668;-71
2021/10/29 12:15:13;;;;;;;12.63;11.40;;;13.70;1.00;;;;;;4868786;29;20201;-70
2021/10/29 12:18:00;;;;;;;14.27;12.37;;;13.50;1.00;;;;;;4872163;29;20581;-70
2021/10/29 12:20:49;;;;;;;13.40;12.10;;;13.40;1.00;;;;;;4878570;29;20256;-69
2021/10/29 12:23:20;;;;;;;11.40;10.37;;;13.90;1.00;;;;;;4870401;29;20190;-70
2021/10/29 13:03:46;;;;;;;9.45;8.38;;;18.00;1.00;;;;;;4871110;29;20707;-68
2021/10/29 13:06:18;;;;;;;14.55;8.95;;;18.40;1.00;;;;;;4884770;29;20212;-67
2021/10/29 13:08:49;;;;;;;10.10;8.40;;;18.50;1.00;;;;;;4887566;29;20710;-68
2021/10/29 13:11:16;;;;;;;9.88;8.98;;;18.40;1.00;;;;;;4869814;29;20203;-67
2021/10/29 13:13:53;;;;;;;9.73;8.80;;;18.10;1.00;;;;;;4869437;29;20194;-67
2021/10/29 13:16:19;;;;;;;10.73;9.65;;;18.30;1.00;;;;;;4858644;29;20841;-69
2021/10/29 13:24:45;;;;;;;10.07;8.98;;;18.90;1.00;;;;;;4779221;29;20207;-68
2021/10/29 13:35:21;;;;;;;12.52;10.13;;;18.70;1.00;;;;;;4778980;29;20241;-68
2021/10/29 13:59:25;;;;;;;9.90;9.00;;;16.80;1.00;;;;;;4866214;29;20649;-69
2021/10/29 14:02:23;;;;;;;9.30;8.50;;;16.30;1.00;;;;;;4873741;29;20224;-69
2021/10/29 14:29:46;;;;;;;12.60;11.30;;;13.10;1.00;;;;;;4868814;29;20251;-67
2021/10/29 14:32:27;;;;;;;12.53;11.43;;;13.00;1.00;;;;;;4874029;29;20286;-69
2021/10/29 14:34:56;;;;;;;12.53;11.23;;;13.00;1.00;;;;;;4874038;29;20215;-69
2021/10/29 14:40:16;;;;;;;13.77;12.33;;;12.80;1.00;;;;;;4870003;29;20222;-70
2021/10/29 14:42:47;;;;;;;14.33;12.53;;;12.60;1.00;;;;;;4873372;29;20217;-69
2021/10/29 14:45:36;;;;;;;14.63;13.20;;;12.70;1.00;;;;;;4873483;29;20316;-69
2021/10/29 14:48:28;;;;;;;14.13;12.53;;;12.50;1.00;;;;;;4869518;29;20281;-68
2021/10/29 15:01:51;;;;;;;13.93;12.53;;;11.90;1.00;;;;;;4869751;29;20432;-68
2021/10/29 15:07:08;;;;;;;15.70;13.70;;;11.80;1.00;;;;;;4872378;29;20493;-69
2021/10/29 15:44:36;;;;;;;16.37;14.67;;;10.60;1.00;;;;;;4871465;29;20641;-68
2021/10/29 15:47:06;;;;;;;15.67;14.03;;;10.50;1.00;;;;;;4870978;29;20288;-69
2021/10/29 15:49:42;;;;;;;16.43;14.73;;;10.40;1.00;;;;;;4866957;29;20327;-69
2021/10/29 15:52:14;;;;;;;17.37;15.27;;;10.30;1.00;;;;;;4874373;29;20529;-69
2021/10/29 15:54:49;;;;;;;16.10;14.53;;;10.40;1.00;;;;;;4876214;29;20239;-68
2021/10/29 15:57:23;;;;;;;16.93;14.17;;;10.30;1.00;;;;;;4875894;29;20187;-68
2021/10/29 16:00:05;;;;;;;15.87;14.20;;;10.20;1.00;;;;;;4871402;29;20187;-69
2021/10/29 16:02:38;;;;;;;16.00;14.33;;;10.20;1.00;;;;;;4870702;29;20216;-67
2021/10/29 16:18:45;;;;;;;16.33;14.73;;;9.70;1.00;;;;;;4867918;29;20703;-69
2021/10/29 16:21:10;;;;;;;16.27;14.67;;;9.70;1.00;;;;;;4871561;29;20221;-69
2021/10/29 16:23:36;;;;;;;16.20;14.27;;;9.60;1.00;;;;;;4865662;29;20602;-68
2021/10/29 16:26:09;;;;;;;17.77;14.57;;;9.60;1.00;;;;;;4871711;29;20251;-69
2021/10/29 16:28:36;;;;;;;18.20;16.37;;;9.50;1.00;;;;;;4871176;29;20639;-68
2021/10/29 16:31:02;;;;;;;20.90;15.60;;;9.50;1.00;;;;;;4875520;29;20197;-68
2021/10/29 16:33:32;;;;;;;16.23;14.53;;;9.40;1.00;;;;;;4868327;29;20219;-68
2021/10/29 16:35:58;;;;;;;16.40;14.70;;;9.40;1.00;;;;;;4865235;29;20191;-72
2021/10/29 16:38:23;;;;;;;17.40;14.53;;;9.30;1.00;;;;;;4877524;29;20329;-70
2021/10/29 16:40:49;;;;;;;18.13;16.20;;;9.30;1.00;;;;;;4873011;29;20220;-71
2021/10/29 16:43:15;;;;;;;16.33;14.73;;;9.30;1.00;;;;;;4874033;29;20653;-69
2021/10/29 16:45:43;;;;;;;21.03;15.47;;;9.30;1.00;;;;;;4875424;29;20202;-71
2021/10/29 16:48:10;;;;;;;17.87;15.43;;;9.20;1.00;;;;;;4871636;29;20194;-71
2021/10/29 16:50:36;;;;;;;17.20;15.40;;;9.10;1.00;;;;;;4876479;29;20290;-72
2021/10/29 16:53:02;;;;;;;16.77;15.13;;;9.10;1.00;;;;;;4869372;29;20196;-72
2021/10/29 16:55:28;;;;;;;16.87;15.17;;;9.00;1.00;;;;;;4868262;29;20183;-72
2021/10/29 16:57:53;;;;;;;17.37;15.67;;;9.00;1.00;;;;;;4868707;29;20297;-70
2021/10/29 17:00:19;;;;;;;17.53;15.77;;;8.90;1.00;;;;;;4875475;29;20790;-72
2021/10/29 17:02:45;;;;;;;17.53;15.70;;;8.80;1.00;;;;;;4869184;29;20734;-70
2021/10/29 17:05:12;;;;;;;17.73;15.87;;;8.80;1.00;;;;;;4874597;29;20272;-71
2021/10/29 17:07:39;;;;;;;15.93;14.37;;;8.70;1.00;;;;;;4865114;29;20186;-71
2021/10/29 17:10:08;;;;;;;16.37;14.73;;;8.70;1.00;;;;;;4874184;29;20549;-71
2021/10/29 17:12:39;;;;;;;17.23;15.50;;;8.60;1.00;;;;;;4875887;29;20281;-72
2021/10/29 17:15:06;;;;;;;18.27;16.37;;;8.60;1.00;;;;;;4872459;29;20273;-71
2021/10/29 17:17:32;;;;;;;20.23;17.27;;;8.70;1.00;;;;;;4868789;29;20197;-71
2021/10/29 17:19:58;;;;;;;20.80;16.87;;;8.60;1.00;;;;;;4870526;29;20207;-71
2021/10/29 17:22:24;;;;;;;18.47;16.13;;;8.50;1.00;;;;;;4878080;29;20586;-71
2021/10/29 17:24:49;;;;;;;20.00;17.03;;;8.50;1.00;;;;;;4874177;29;20240;-70
2021/10/29 17:27:15;;;;;;;24.63;17.70;;;8.40;1.00;;;;;;4871418;29;20205;-70
2021/10/29 17:29:41;;;;;;;19.43;17.43;;;8.40;1.00;;;;;;4872581;29;20201;-70
2021/10/29 17:32:12;;;;;;;22.03;18.60;;;8.30;1.00;;;;;;4869596;29;20762;-69
2021/10/29 17:34:39;;;;;;;22.23;16.53;;;8.20;1.00;;;;;;4867017;29;20585;-70
2021/10/29 17:37:06;;;;;;;21.20;18.33;;;8.20;1.00;;;;;;4869660;29;20305;-70
2021/10/29 17:39:32;;;;;;;20.73;18.53;;;8.20;1.00;;;;;;4868132;29;20228;-71
2021/10/29 17:41:57;;;;;;;20.30;18.20;;;8.10;1.00;;;;;;4877084;29;20335;-71
2021/10/29 17:44:24;;;;;;;20.37;18.30;;;8.10;1.00;;;;;;4877892;29;20188;-71
2021/10/29 17:46:50;;;;;;;21.40;19.10;;;8.10;1.00;;;;;;4877161;29;20641;-71
2021/10/29 17:49:17;;;;;;;20.03;18.00;;;8.00;1.00;;;;;;4874381;29;20200;-71
2021/10/29 17:51:44;;;;;;;22.23;18.17;;;8.00;1.00;;;;;;4875955;29;20200;-73